Time;durP1;ratioP1;P1;durP2;ratioP2;P2;SDS_P1;SDS_P2;PMS_P1;PMS_P2;Temp;Humidity;BMP_temperature;BMP_pressure;BME280_temperature;BME280_humidity;BME280_pressure;Samples;Min_cycle;Max_cycle;Signal;HPM_P1;HPM_P2
2021/11/01 00:01:33;;;;;;;15.43;3.05;;;12.20;99.90;;;;;;5034183;28;20032;-67
2021/11/01 00:04:03;;;;;;;18.52;2.30;;;12.10;99.90;;;;;;5039742;28;20506;-67
2021/11/01 00:06:30;;;;;;;28.58;2.40;;;12.10;99.90;;;;;;5038434;28;20029;-67
2021/11/01 00:08:56;;;;;;;16.98;2.28;;;12.10;99.90;;;;;;5034317;28;20033;-67
2021/11/01 00:11:22;;;;;;;17.63;2.40;;;12.00;99.90;;;;;;5034663;28;20485;-67
2021/11/01 00:13:47;;;;;;;14.45;2.15;;;12.00;99.90;;;;;;5044517;28;20041;-67
2021/11/01 00:16:13;;;;;;;20.35;2.67;;;12.00;99.90;;;;;;5035914;28;20032;-67
2021/11/01 00:18:39;;;;;;;13.75;2.03;;;11.90;99.90;;;;;;5038148;28;20056;-67
2021/11/01 00:21:04;;;;;;;28.45;3.70;;;11.90;99.90;;;;;;5037644;28;20041;-67
2021/11/01 00:23:30;;;;;;;33.67;2.85;;;11.90;99.90;;;;;;5032841;28;20030;-67
2021/11/01 00:25:55;;;;;;;27.55;2.63;;;11.80;99.90;;;;;;5034290;28;20033;-67
2021/11/01 00:28:21;;;;;;;13.40;2.17;;;11.80;99.90;;;;;;5054793;28;20029;-67
2021/11/01 00:30:47;;;;;;;27.65;3.08;;;11.80;99.90;;;;;;5054104;28;20484;-67
2021/11/01 00:33:13;;;;;;;20.63;3.72;;;11.80;99.90;;;;;;5041805;28;20064;-67
2021/11/01 00:35:38;;;;;;;14.40;2.50;;;11.90;99.90;;;;;;5037630;28;20026;-67
2021/11/01 00:38:05;;;;;;;25.60;3.45;;;11.90;99.90;;;;;;5033900;28;20065;-67
2021/11/01 00:40:30;;;;;;;21.40;3.88;;;11.90;99.90;;;;;;5033776;28;20033;-67
2021/11/01 00:42:56;;;;;;;27.13;3.85;;;11.90;99.90;;;;;;5033770;28;20088;-67
2021/11/01 00:45:22;;;;;;;18.73;2.55;;;11.90;99.90;;;;;;5034099;28;20041;-67
2021/11/01 00:47:47;;;;;;;29.02;4.10;;;11.90;99.90;;;;;;5031827;28;20017;-67
2021/11/01 00:50:14;;;;;;;21.52;2.70;;;11.80;99.90;;;;;;5036223;28;20041;-67
2021/11/01 00:52:40;;;;;;;27.77;2.95;;;11.80;99.90;;;;;;5032789;28;20036;-67
2021/11/01 00:55:10;;;;;;;25.90;2.63;;;11.80;99.90;;;;;;5032912;28;20124;-67
2021/11/01 00:57:36;;;;;;;20.52;2.33;;;11.80;99.90;;;;;;5035645;28;20029;-67
2021/11/01 01:00:04;;;;;;;17.90;2.65;;;11.70;99.90;;;;;;5032581;28;20025;-67
2021/11/01 01:02:34;;;;;;;18.80;2.40;;;11.70;99.90;;;;;;5030950;28;20028;-67
2021/11/01 01:05:01;;;;;;;20.77;2.58;;;11.70;99.90;;;;;;5032782;28;20453;-67
2021/11/01 01:07:27;;;;;;;18.73;2.67;;;11.60;99.90;;;;;;5032571;28;20392;-67
2021/11/01 01:09:53;;;;;;;24.85;2.53;;;11.60;99.90;;;;;;5052009;28;20018;-67
2021/11/01 01:12:19;;;;;;;18.00;2.38;;;11.50;99.90;;;;;;5040812;28;20481;-67
2021/11/01 01:14:51;;;;;;;22.10;3.10;;;11.40;99.90;;;;;;5031877;28;20022;-67
2021/11/01 01:17:19;;;;;;;24.80;2.55;;;11.40;99.90;;;;;;5032744;28;20029;-67
2021/11/01 01:20:08;;;;;;;14.48;1.70;;;11.30;99.90;;;;;;5033736;28;20040;-67
2021/11/01 01:22:31;;;;;;;19.17;2.25;;;11.30;99.90;;;;;;5044581;28;20090;-67
2021/11/01 01:25:03;;;;;;;23.55;3.38;;;11.20;99.90;;;;;;5034086;28;20025;-67
2021/11/01 01:27:30;;;;;;;26.77;3.13;;;11.10;99.90;;;;;;5033633;28;20017;-67
2021/11/01 01:29:56;;;;;;;14.68;3.28;;;11.10;99.90;;;;;;5044680;28;20287;-67
2021/11/01 01:32:21;;;;;;;23.83;2.72;;;11.00;99.90;;;;;;5032693;28;20029;-67
2021/11/01 01:34:47;;;;;;;29.17;3.20;;;11.00;99.90;;;;;;5037921;28;20052;-67
2021/11/01 01:37:13;;;;;;;14.93;2.33;;;11.00;99.90;;;;;;5037469;28;20060;-67
2021/11/01 01:39:39;;;;;;;26.23;3.08;;;11.00;99.90;;;;;;5037166;28;20508;-67
2021/11/01 01:42:05;;;;;;;22.58;2.60;;;11.00;99.90;;;;;;5038660;28;20472;-67
2021/11/01 01:44:30;;;;;;;18.88;2.92;;;10.90;99.90;;;;;;5053516;28;20021;-67
2021/11/01 01:46:56;;;;;;;19.48;3.63;;;10.90;99.90;;;;;;5035591;28;20048;-67
2021/11/01 01:49:21;;;;;;;19.20;3.15;;;10.80;99.90;;;;;;5030980;28;20033;-67
2021/11/01 01:51:47;;;;;;;32.00;2.97;;;10.80;99.90;;;;;;5032895;28;20484;-67
2021/11/01 01:54:13;;;;;;;29.90;3.25;;;10.70;99.90;;;;;;5033329;28;20464;-67
2021/11/01 01:56:38;;;;;;;33.00;3.25;;;10.70;99.90;;;;;;5034654;28;20021;-67
2021/11/01 01:59:07;;;;;;;36.72;3.65;;;10.60;99.90;;;;;;5031796;28;20030;-67
2021/11/01 02:01:33;;;;;;;31.95;3.45;;;10.70;99.90;;;;;;5031586;28;20188;-67
2021/11/01 02:03:59;;;;;;;32.72;4.53;;;10.70;99.90;;;;;;5033336;28;20071;-68
2021/11/01 02:06:47;;;;;;;31.45;4.35;;;10.60;99.90;;;;;;5033302;28;20463;-67
2021/11/01 02:09:24;;;;;;;32.38;4.20;;;10.60;99.90;;;;;;5033285;28;20049;-67
2021/11/01 02:12:06;;;;;;;23.60;3.42;;;10.60;99.90;;;;;;5028356;28;20061;-67
2021/11/01 02:14:39;;;;;;;25.20;3.97;;;10.60;99.90;;;;;;5032247;28;20032;-67
2021/11/01 02:17:06;;;;;;;27.42;2.90;;;10.50;99.90;;;;;;5038173;28;20029;-67
2021/11/01 02:19:45;;;;;;;33.65;2.97;;;10.50;99.90;;;;;;5039767;28;20075;-67
2021/11/01 02:22:20;;;;;;;23.30;4.35;;;10.50;99.90;;;;;;5032752;28;20029;-67
2021/11/01 02:24:58;;;;;;;33.75;4.47;;;10.40;99.90;;;;;;5034316;28;20036;-68
2021/11/01 02:27:30;;;;;;;24.98;3.85;;;10.40;99.90;;;;;;5032532;28;20039;-67
2021/11/01 02:29:56;;;;;;;30.05;2.90;;;10.40;99.90;;;;;;5041169;28;20029;-67
2021/11/01 02:32:22;;;;;;;32.80;3.75;;;10.40;99.90;;;;;;5033201;28;20370;-67
2021/11/01 02:34:48;;;;;;;33.83;3.95;;;10.40;99.90;;;;;;5039066;28;20029;-67
2021/11/01 02:37:14;;;;;;;38.35;4.90;;;10.30;99.90;;;;;;5043621;28;20052;-68
2021/11/01 02:39:51;;;;;;;35.47;5.85;;;10.30;99.90;;;;;;5031577;28;20026;-67
2021/11/01 02:42:18;;;;;;;32.90;4.80;;;10.30;99.90;;;;;;5030605;28;20510;-67
2021/11/01 02:45:12;;;;;;;42.13;4.93;;;10.30;99.90;;;;;;5034311;28;20030;-67
2021/11/01 02:47:38;;;;;;;;;;;10.20;99.90;;;;;;5034414;28;20049;-67
2021/11/01 02:50:14;;;;;;;44.13;4.57;;;10.20;99.90;;;;;;5047989;28;19905;-67
2021/11/01 02:52:40;;;;;;;36.67;4.07;;;10.10;99.90;;;;;;5039729;28;20022;-67
2021/11/01 02:55:07;;;;;;;33.03;4.90;;;10.10;99.90;;;;;;5035511;28;20416;-67
2021/11/01 02:57:33;;;;;;;34.92;4.95;;;10.10;99.90;;;;;;5035352;28;20087;-67
2021/11/01 03:00:00;;;;;;;39.22;5.90;;;10.10;99.90;;;;;;5053567;28;20108;-67
2021/11/01 03:02:25;;;;;;;45.00;4.80;;;10.10;99.90;;;;;;5025480;28;20034;-67
2021/11/01 03:04:51;;;;;;;54.53;5.10;;;10.10;99.90;;;;;;5033671;28;20028;-67
2021/11/01 03:07:18;;;;;;;50.05;4.68;;;10.10;99.90;;;;;;5035262;28;20026;-67
2021/11/01 03:09:46;;;;;;;40.25;5.90;;;10.00;99.90;;;;;;5035621;28;20022;-67
2021/11/01 03:12:15;;;;;;;57.17;6.40;;;10.00;99.90;;;;;;5035629;28;20496;-67
2021/11/01 03:14:48;;;;;;;47.78;6.00;;;10.00;99.90;;;;;;5035464;28;20031;-67
2021/11/01 03:17:18;;;;;;;57.45;6.00;;;10.00;99.90;;;;;;5034136;28;20021;-67
2021/11/01 03:19:49;;;;;;;57.17;5.40;;;9.90;99.90;;;;;;5035070;28;20049;-67
2021/11/01 03:22:15;;;;;;;70.60;7.63;;;9.90;99.90;;;;;;5034658;28;20104;-67
2021/11/01 03:24:46;;;;;;;49.75;6.65;;;9.90;99.90;;;;;;5035941;28;20041;-67
2021/11/01 03:27:16;;;;;;;67.72;7.35;;;9.90;99.90;;;;;;5034280;28;20060;-67
2021/11/01 03:29:45;;;;;;;75.85;9.55;;;9.90;99.90;;;;;;5036342;28;20048;-67
2021/11/01 03:32:12;;;;;;;64.15;6.30;;;10.00;99.90;;;;;;5044354;28;20484;-67
2021/11/01 03:34:39;;;;;;;51.70;6.70;;;10.10;99.90;;;;;;5043415;28;20041;-67
2021/11/01 03:37:10;;;;;;;67.35;7.95;;;10.10;99.90;;;;;;5035035;28;20057;-67
2021/11/01 03:39:38;;;;;;;53.47;6.97;;;10.10;99.90;;;;;;5042441;28;20051;-67
2021/11/01 03:42:07;;;;;;;39.40;5.68;;;10.10;99.90;;;;;;5048666;28;20021;-67
2021/11/01 03:44:36;;;;;;;59.75;6.05;;;10.10;99.90;;;;;;5035637;28;20013;-67
2021/11/01 03:47:04;;;;;;;58.60;6.43;;;10.00;99.90;;;;;;5034871;28;20453;-67
2021/11/01 03:49:33;;;;;;;57.92;7.93;;;10.00;99.90;;;;;;5034113;28;20026;-67
2021/11/01 03:52:10;;;;;;;47.70;4.72;;;10.00;99.90;;;;;;5034434;28;20028;-67
2021/11/01 03:54:37;;;;;;;44.97;4.65;;;10.00;99.90;;;;;;5035139;28;20392;-67
2021/11/01 03:57:05;;;;;;;66.10;7.57;;;9.90;99.90;;;;;;5035309;28;20022;-67
2021/11/01 03:59:32;;;;;;;50.53;5.75;;;9.90;99.90;;;;;;5045348;28;20472;-68
2021/11/01 04:01:58;;;;;;;55.35;6.00;;;9.80;99.90;;;;;;5043533;28;20017;-67
2021/11/01 04:04:24;;;;;;;58.70;5.57;;;9.90;99.90;;;;;;5046335;28;20170;-67
2021/11/01 04:06:49;;;;;;;54.95;7.75;;;9.90;99.90;;;;;;5035264;28;20060;-67
2021/11/01 04:09:16;;;;;;;53.25;6.90;;;9.90;99.90;;;;;;5037629;28;20022;-67
2021/11/01 04:11:43;;;;;;;47.55;7.47;;;10.00;99.90;;;;;;5055378;28;20025;-67
2021/11/01 04:14:16;;;;;;;44.00;5.53;;;9.90;99.90;;;;;;5054396;28;20542;-67
2021/11/01 04:16:45;;;;;;;56.80;7.38;;;9.90;99.90;;;;;;5045487;28;20080;-68
2021/11/01 04:21:45;;;;;;;52.33;5.95;;;9.90;99.90;;;;;;5034754;28;20067;-67
2021/11/01 04:24:11;;;;;;;75.97;7.05;;;9.90;99.90;;;;;;5034827;28;20423;-67
2021/11/01 04:26:37;;;;;;;48.00;6.95;;;9.90;99.90;;;;;;5034720;28;20063;-68
2021/11/01 04:29:07;;;;;;;53.03;6.15;;;9.90;99.90;;;;;;5034460;28;20451;-67
2021/11/01 04:31:36;;;;;;;47.72;5.90;;;10.00;99.90;;;;;;5034406;28;20064;-67
2021/11/01 04:34:50;;;;;;;48.97;6.38;;;10.00;99.90;;;;;;5034693;28;20026;-67
2021/11/01 04:36:51;;;;;;;43.95;6.32;;;10.10;99.90;;;;;;5010959;28;20042;-67
2021/11/01 04:39:35;;;;;;;44.78;5.13;;;10.10;99.90;;;;;;5015150;28;20072;-67
2021/11/01 04:52:53;;;;;;;51.50;6.35;;;10.10;99.90;;;;;;5015167;28;19951;-67
2021/11/01 04:53:08;;;;;;;61.88;7.00;;;10.10;99.90;;;;;;5034422;28;19963;-67
2021/11/01 04:55:34;;;;;;;47.47;6.78;;;10.10;99.90;;;;;;5033210;28;20061;-67
2021/11/01 04:58:01;;;;;;;48.63;5.40;;;10.00;99.90;;;;;;5039997;28;20035;-67
2021/11/01 05:00:27;;;;;;;43.55;6.55;;;10.00;99.90;;;;;;5033552;28;20036;-67
2021/11/01 05:03:01;;;;;;;53.63;6.53;;;10.00;99.90;;;;;;5047676;28;20105;-67
2021/11/01 05:05:26;;;;;;;43.75;7.07;;;10.00;99.90;;;;;;5031853;28;20502;-67
2021/11/01 05:07:53;;;;;;;54.38;5.90;;;10.00;99.90;;;;;;5036158;28;20033;-67
2021/11/01 05:10:30;;;;;;;47.30;7.57;;;10.00;99.90;;;;;;5032788;28;20030;-67
2021/11/01 05:12:56;;;;;;;55.60;6.78;;;9.90;99.90;;;;;;5032369;28;20393;-67
2021/11/01 05:18:21;;;;;;;34.35;5.50;;;9.90;99.90;;;;;;5039771;28;20067;-67
2021/11/01 05:20:54;;;;;;;62.30;6.60;;;9.90;99.90;;;;;;5035383;28;20064;-67
2021/11/01 05:25:57;;;;;;;40.88;6.28;;;9.80;99.90;;;;;;5032935;28;20393;-67
2021/11/01 05:36:00;;;;;;;46.92;6.65;;;9.80;99.90;;;;;;5030272;28;20075;-67
2021/11/01 05:38:26;;;;;;;40.08;6.30;;;9.80;99.90;;;;;;5032905;28;20022;-67
2021/11/01 05:40:52;;;;;;;36.92;4.30;;;9.80;99.90;;;;;;5029959;28;20021;-67
2021/11/01 05:43:18;;;;;;;58.38;6.35;;;9.70;99.90;;;;;;5033408;28;20053;-67
2021/11/01 05:45:43;;;;;;;38.13;4.68;;;9.70;99.90;;;;;;5031977;28;20456;-67
2021/11/01 05:48:09;;;;;;;38.55;5.90;;;9.70;99.90;;;;;;5032966;28;20026;-67
2021/11/01 05:50:36;;;;;;;44.05;7.07;;;9.60;99.90;;;;;;5045160;28;20061;-67
2021/11/01 05:53:04;;;;;;;46.70;6.57;;;9.70;99.90;;;;;;5030528;28;20087;-67
2021/11/01 06:03:39;;;;;;;37.00;5.32;;;9.60;99.90;;;;;;5033872;28;20036;-67
2021/11/01 06:06:22;;;;;;;45.55;6.50;;;9.60;99.90;;;;;;5051793;28;20033;-67
2021/11/01 06:14:07;;;;;;;44.20;6.20;;;9.50;99.90;;;;;;5041218;28;20118;-68
2021/11/01 06:16:33;;;;;;;46.78;6.15;;;9.50;99.90;;;;;;5032506;28;20061;-67
2021/11/01 06:18:59;;;;;;;44.05;5.50;;;9.40;99.90;;;;;;5035034;28;20022;-67
2021/11/01 06:21:24;;;;;;;30.00;4.78;;;9.40;99.90;;;;;;5039182;28;20486;-67
2021/11/01 06:23:55;;;;;;;45.25;4.95;;;9.30;99.90;;;;;;5039503;28;20026;-67
2021/11/01 06:26:21;;;;;;;49.67;7.55;;;9.30;99.90;;;;;;5033921;28;20052;-67
2021/11/01 06:28:51;;;;;;;45.78;4.53;;;9.40;99.90;;;;;;5030867;28;20420;-67
2021/11/01 06:31:25;;;;;;;49.08;6.15;;;9.50;99.90;;;;;;5036058;28;20022;-67
2021/11/01 06:34:14;;;;;;;50.63;5.70;;;9.50;99.90;;;;;;5039916;28;20026;-67
2021/11/01 06:39:41;;;;;;;;;;;9.40;99.90;;;;;;5036855;28;20079;-68
2021/11/01 06:42:25;;;;;;;43.25;4.72;;;9.30;99.90;;;;;;5037593;28;19913;-67
2021/11/01 06:56:41;;;;;;;36.65;4.93;;;9.30;99.90;;;;;;5034301;28;20068;-67
2021/11/01 07:15:39;;;;;;;46.47;7.18;;;9.20;99.90;;;;;;5035872;28;20048;-67
2021/11/01 07:20:49;;;;;;;44.45;6.10;;;9.10;99.90;;;;;;5039753;28;20499;-67
2021/11/01 08:26:04;;;;;;;25.52;4.00;;;10.70;99.90;;;;;;5020732;28;20065;-68
2021/11/01 08:28:48;;;;;;;37.55;4.68;;;10.70;99.90;;;;;;5028112;28;20022;-67
2021/11/01 08:39:11;;;;;;;21.20;3.55;;;10.60;99.90;;;;;;5035044;28;20024;-67
2021/11/01 08:47:12;;;;;;;34.45;5.10;;;10.50;99.90;;;;;;5017115;28;20004;-68
2021/11/01 09:05:59;;;;;;;22.63;4.88;;;10.60;99.90;;;;;;5034401;28;20040;-68
2021/11/01 09:26:34;;;;;;;20.08;4.63;;;11.20;99.90;;;;;;5053899;28;20388;-68
2021/11/01 09:42:24;;;;;;;17.48;3.33;;;11.20;99.90;;;;;;5053611;28;20036;-68
2021/11/01 09:44:51;;;;;;;18.65;3.15;;;11.30;99.90;;;;;;5052887;28;20029;-68
2021/11/01 09:47:17;;;;;;;25.90;3.85;;;11.40;99.90;;;;;;5053405;28;20024;-68
2021/11/01 09:49:43;;;;;;;16.95;3.53;;;11.40;99.90;;;;;;5053689;28;20029;-68
2021/11/01 09:52:09;;;;;;;19.52;4.03;;;11.40;99.90;;;;;;5053347;28;20100;-68
2021/11/01 09:54:37;;;;;;;19.38;3.67;;;11.40;99.90;;;;;;5053447;28;20502;-68
2021/11/01 09:57:09;;;;;;;22.80;3.47;;;11.40;99.90;;;;;;5053099;28;20476;-68
2021/11/01 09:59:36;;;;;;;19.40;4.28;;;11.40;99.90;;;;;;5053612;28;20039;-68
2021/11/01 10:02:03;;;;;;;32.13;4.88;;;11.40;99.90;;;;;;5053483;28;20025;-68
2021/11/01 10:04:31;;;;;;;18.33;3.53;;;11.50;99.90;;;;;;5053407;28;20045;-68
2021/11/01 10:07:19;;;;;;;20.95;4.50;;;11.50;99.90;;;;;;5052643;28;20524;-68
2021/11/01 10:09:47;;;;;;;28.58;4.20;;;11.50;99.90;;;;;;5053222;28;20028;-68
2021/11/01 10:12:18;;;;;;;28.30;3.50;;;11.60;99.90;;;;;;5051885;28;20403;-68
2021/11/01 10:14:46;;;;;;;23.60;3.72;;;11.80;99.90;;;;;;5053092;28;20021;-68
2021/11/01 10:19:58;;;;;;;19.67;3.22;;;11.80;99.90;;;;;;5053607;28;20028;-68
2021/11/01 10:22:34;;;;;;;24.60;5.63;;;11.80;99.90;;;;;;5053042;28;20021;-68
2021/11/01 10:25:00;;;;;;;21.35;4.25;;;11.60;99.90;;;;;;5053234;28;20029;-68
2021/11/01 10:27:33;;;;;;;25.83;3.70;;;11.60;99.90;;;;;;5051173;28;20029;-67
2021/11/01 10:30:03;;;;;;;20.47;3.30;;;11.70;99.90;;;;;;5053099;28;20021;-67
2021/11/01 10:32:34;;;;;;;20.00;3.45;;;11.60;99.90;;;;;;5053240;28;20361;-67
2021/11/01 10:35:24;;;;;;;18.67;3.33;;;11.40;99.90;;;;;;5052864;28;20051;-67
2021/11/01 10:40:45;;;;;;;19.48;3.15;;;11.30;99.90;;;;;;5053212;28;20036;-67
2021/11/01 10:43:47;;;;;;;20.77;3.90;;;11.30;99.90;;;;;;5053149;28;20025;-67
2021/11/01 11:14:08;;;;;;;28.65;4.32;;;11.10;99.90;;;;;;5056497;28;20559;-67
2021/11/01 11:47:40;;;;;;;23.00;3.58;;;11.90;99.90;;;;;;5035669;28;20080;-67
2021/11/01 11:50:14;;;;;;;14.98;3.03;;;12.10;99.90;;;;;;5035811;28;20029;-67
2021/11/01 11:52:40;;;;;;;21.90;3.78;;;12.00;99.90;;;;;;5035718;28;20021;-67
2021/11/01 11:55:19;;;;;;;19.13;4.13;;;11.90;99.90;;;;;;5035493;28;20393;-67
2021/11/01 11:58:00;;;;;;;11.10;2.72;;;11.90;99.90;;;;;;5038255;28;20033;-67
2021/11/01 12:00:33;;;;;;;15.00;3.28;;;11.90;99.90;;;;;;5055942;28;20119;-67
2021/11/01 12:03:37;;;;;;;22.30;4.72;;;11.70;99.90;;;;;;5055064;28;20078;-68
2021/11/01 12:06:12;;;;;;;15.82;3.35;;;11.90;99.90;;;;;;5048903;28;20029;-68
2021/11/01 12:08:40;;;;;;;21.88;3.80;;;12.10;99.90;;;;;;5055543;28;20100;-68
2021/11/01 12:19:16;;;;;;;19.08;3.63;;;11.90;99.90;;;;;;5055253;28;20017;-67
2021/11/01 12:21:45;;;;;;;21.27;3.67;;;11.90;99.90;;;;;;5054404;28;20017;-67
2021/11/01 12:24:17;;;;;;;16.50;2.58;;;11.80;99.90;;;;;;5055214;28;20045;-68
2021/11/01 12:26:46;;;;;;;16.90;2.75;;;11.80;99.90;;;;;;5055074;28;20100;-68
2021/11/01 12:29:14;;;;;;;11.23;2.35;;;11.90;99.90;;;;;;5054343;28;20029;-67
2021/11/01 12:31:41;;;;;;;21.95;2.65;;;12.00;99.90;;;;;;5054563;28;20056;-67
2021/11/01 12:34:20;;;;;;;20.50;3.40;;;11.90;99.90;;;;;;5055028;28;20028;-68
2021/11/01 12:37:08;;;;;;;12.35;2.58;;;11.90;99.90;;;;;;5054640;28;20037;-68
2021/11/01 12:58:34;;;;;;;10.73;2.35;;;12.50;99.90;;;;;;5054101;28;20039;-67
2021/11/01 13:01:12;;;;;;;12.02;1.98;;;12.90;99.90;;;;;;5054535;28;20032;-67
2021/11/01 13:03:38;;;;;;;15.77;2.63;;;13.20;99.90;;;;;;5054354;28;20021;-67
2021/11/01 13:06:08;;;;;;;10.15;2.33;;;12.90;99.90;;;;;;5054656;28;20021;-67
2021/11/01 13:08:44;;;;;;;12.02;2.53;;;13.20;99.90;;;;;;5053261;28;20021;-70
2021/11/01 13:19:17;;;;;;;11.30;2.65;;;12.90;99.90;;;;;;5053873;28;20063;-71
2021/11/01 13:24:24;;;;;;;12.90;2.40;;;12.60;99.90;;;;;;5053639;28;20028;-71
2021/11/01 13:40:15;;;;;;;15.98;2.20;;;12.00;99.90;;;;;;5053990;28;20430;-67
2021/11/01 13:42:56;;;;;;;12.07;2.42;;;12.00;99.90;;;;;;5053569;28;20488;-67
2021/11/01 13:45:22;;;;;;;11.05;2.47;;;11.90;99.90;;;;;;5053718;28;20036;-67
2021/11/01 13:47:50;;;;;;;13.60;1.85;;;11.90;99.90;;;;;;5053435;28;20017;-67
2021/11/01 13:50:19;;;;;;;18.05;2.55;;;11.90;99.90;;;;;;5052881;28;20040;-67
2021/11/01 13:53:03;;;;;;;11.90;1.75;;;12.00;99.90;;;;;;5053405;28;20021;-67
2021/11/01 13:55:37;;;;;;;11.35;2.42;;;12.20;99.90;;;;;;5053008;28;20033;-67
2021/11/01 13:58:12;;;;;;;15.68;3.42;;;12.40;99.90;;;;;;5052979;28;20021;-67
2021/11/01 14:00:48;;;;;;;9.52;2.30;;;12.50;99.90;;;;;;5052731;28;20021;-67
2021/11/01 14:57:19;;;;;;;11.23;1.85;;;12.30;99.90;;;;;;5055841;28;20411;-68
2021/11/01 15:17:32;;;;;;;9.57;2.15;;;11.30;99.90;;;;;;5055857;28;20059;-67
2021/11/01 15:33:22;;;;;;;12.63;2.67;;;10.70;99.90;;;;;;5055870;28;20081;-67
2021/11/01 15:38:48;;;;;;;9.52;2.13;;;10.50;99.90;;;;;;5055643;28;20040;-67
2021/11/01 16:19:40;;;;;;;11.63;3.15;;;9.80;99.90;;;;;;5054999;28;20076;-67
2021/11/01 16:22:07;;;;;;;9.27;2.35;;;9.80;99.90;;;;;;5054832;28;20031;-68
2021/11/01 16:24:34;;;;;;;14.43;2.40;;;9.80;99.90;;;;;;5055093;28;20021;-67
2021/11/01 16:27:01;;;;;;;14.32;2.78;;;9.70;99.90;;;;;;5054700;28;20064;-67
2021/11/01 16:29:39;;;;;;;22.60;2.40;;;9.60;99.90;;;;;;5054993;28;20032;-67
2021/11/01 16:32:10;;;;;;;12.23;2.50;;;9.50;99.90;;;;;;5054774;28;20040;-67
2021/11/01 16:34:37;;;;;;;14.52;2.67;;;9.40;99.90;;;;;;5054917;28;20028;-67
2021/11/01 16:39:50;;;;;;;9.65;2.75;;;9.20;99.90;;;;;;5055018;28;20071;-67
2021/11/01 16:42:19;;;;;;;11.70;2.65;;;9.20;99.90;;;;;;5054698;28;20025;-67
2021/11/01 16:44:49;;;;;;;13.25;2.92;;;9.30;99.90;;;;;;5054405;28;20049;-67
2021/11/01 16:47:16;;;;;;;15.18;2.55;;;9.30;99.90;;;;;;5054354;28;20028;-67
2021/11/01 16:49:43;;;;;;;14.57;3.05;;;9.40;99.90;;;;;;5054461;28;20024;-67
2021/11/01 16:52:15;;;;;;;10.95;1.95;;;9.40;99.90;;;;;;5054023;28;20029;-68
2021/11/01 16:54:49;;;;;;;11.55;2.53;;;9.50;99.90;;;;;;5054146;28;20029;-68
2021/11/01 16:57:24;;;;;;;11.95;2.70;;;9.50;99.90;;;;;;5054887;28;20107;-68
2021/11/01 17:02:36;;;;;;;13.07;1.90;;;9.60;99.90;;;;;;5054137;28;20070;-67
2021/11/01 17:07:53;;;;;;;16.48;2.10;;;9.70;99.90;;;;;;5054285;28;20036;-67
2021/11/01 17:10:55;;;;;;;14.73;3.45;;;9.60;99.90;;;;;;5054713;28;20456;-68
2021/11/01 17:26:53;;;;;;;7.30;2.65;;;9.60;99.90;;;;;;5053721;28;20415;-67
2021/11/01 17:30:06;;;;;;;12.57;3.15;;;9.50;99.90;;;;;;5053756;28;20074;-67
2021/11/01 18:37:17;;;;;;;17.40;5.32;;;8.80;99.90;;;;;;5052901;28;20071;-67
2021/11/01 18:42:25;;;;;;;14.45;5.65;;;8.60;99.90;;;;;;5052415;28;20060;-68
2021/11/01 18:45:02;;;;;;;26.27;5.90;;;8.60;99.90;;;;;;5052825;28;20480;-68
2021/11/01 18:53:06;;;;;;;16.33;5.38;;;8.60;99.90;;;;;;5052961;28;20044;-68
2021/11/01 18:55:32;;;;;;;17.25;5.88;;;8.50;99.90;;;;;;5050522;28;20037;-68
2021/11/01 18:58:01;;;;;;;21.30;5.45;;;8.50;99.90;;;;;;5052701;28;20021;-68
2021/11/01 19:00:28;;;;;;;21.92;6.32;;;8.40;99.90;;;;;;5051175;28;20029;-68
2021/11/01 19:02:57;;;;;;;12.15;5.85;;;8.30;99.90;;;;;;5052719;28;20017;-68
2021/11/01 19:05:32;;;;;;;15.10;6.75;;;8.30;99.90;;;;;;5051751;28;20388;-67
2021/11/01 21:27:36;;;;;;;11.20;3.42;;;8.20;99.90;;;;;;5019902;28;20025;-70
2021/11/01 21:30:03;;;;;;;10.32;3.10;;;8.10;99.90;;;;;;5037750;28;20088;-70
2021/11/01 21:32:28;;;;;;;13.80;4.22;;;8.00;99.90;;;;;;5034382;28;20029;-70
2021/11/01 21:35:03;;;;;;;12.70;3.17;;;7.90;99.90;;;;;;5028627;28;20025;-70
2021/11/01 21:37:29;;;;;;;11.07;3.30;;;8.10;99.90;;;;;;5036319;28;20021;-70
2021/11/01 21:39:57;;;;;;;14.82;3.60;;;8.00;99.90;;;;;;5036012;28;20109;-70
2021/11/01 21:42:23;;;;;;;15.27;3.92;;;8.00;99.90;;;;;;5028789;28;20103;-71
2021/11/01 21:44:49;;;;;;;12.82;4.22;;;8.00;99.90;;;;;;5032969;28;20076;-70
2021/11/01 21:47:14;;;;;;;15.27;3.47;;;7.90;99.90;;;;;;5027068;28;20044;-71
2021/11/01 21:49:40;;;;;;;15.27;4.10;;;7.90;99.90;;;;;;5031653;28;20025;-70
2021/11/01 21:52:06;;;;;;;17.25;4.32;;;7.90;99.90;;;;;;5029583;28;20083;-70
2021/11/01 21:54:39;;;;;;;14.68;4.82;;;7.90;99.90;;;;;;5031199;28;20103;-71
2021/11/01 21:57:09;;;;;;;12.50;3.40;;;7.80;99.90;;;;;;5035500;28;20053;-71
2021/11/01 22:00:04;;;;;;;14.18;4.32;;;7.70;99.90;;;;;;5030211;28;20020;-71
2021/11/01 22:21:23;;;;;;;13.27;4.45;;;7.40;99.90;;;;;;5025128;28;19991;-67
2021/11/01 22:34:36;;;;;;;17.13;4.53;;;7.50;99.90;;;;;;5034319;28;20476;-67
2021/11/01 22:42:27;;;;;;;9.25;4.05;;;7.30;99.90;;;;;;5026870;28;20034;-67
2021/11/01 22:58:04;;;;;;;18.25;5.60;;;6.90;99.90;;;;;;5038970;28;20026;-70
2021/11/01 23:00:34;;;;;;;21.35;4.85;;;6.90;99.90;;;;;;5032767;28;20499;-70
2021/11/01 23:03:06;;;;;;;30.33;4.78;;;6.90;99.90;;;;;;5031438;28;20105;-69
2021/11/01 23:32:55;;;;;;;;;;;6.50;99.90;;;;;;5036649;28;20404;-70
2021/11/01 23:35:20;;;;;;;19.80;5.03;;;6.40;99.90;;;;;;5029255;28;19909;-69
2021/11/01 23:37:46;;;;;;;16.52;4.75;;;6.40;99.90;;;;;;5035724;28;20119;-70
2021/11/01 23:40:11;;;;;;;9.20;4.60;;;6.30;99.90;;;;;;5025312;28;20033;-70
2021/11/01 23:42:37;;;;;;;16.75;5.68;;;6.20;99.90;;;;;;5032590;28;20022;-67
2021/11/01 23:45:03;;;;;;;19.30;5.90;;;6.30;99.90;;;;;;5035103;28;20097;-67
2021/11/01 23:47:29;;;;;;;14.63;5.38;;;6.30;99.90;;;;;;5034600;28;20472;-67
2021/11/01 23:49:55;;;;;;;22.88;6.13;;;6.40;99.90;;;;;;5035277;28;20495;-67
2021/11/01 23:52:22;;;;;;;11.68;4.72;;;6.40;99.90;;;;;;5035045;28;20108;-67
2021/11/01 23:54:48;;;;;;;12.65;5.68;;;6.30;99.90;;;;;;5034422;28;20404;-67
2021/11/01 23:57:15;;;;;;;29.17;5.60;;;6.20;99.90;;;;;;5034935;28;20033;-67
2021/11/01 23:59:45;;;;;;;16.27;4.93;;;6.10;99.90;;;;;;5034930;28;20523;-67
